Time;durP1;ratioP1;P1;durP2;ratioP2;P2;SDS_P1;SDS_P2;PMS_P1;PMS_P2;Temp;Humidity;BMP_temperature;BMP_pressure;BME280_temperature;BME280_humidity;BME280_pressure;Samples;Min_cycle;Max_cycle;Signal;HPM_P1;HPM_P2
2021/07/08 00:01:27;;;;;;;4.17;2.47;;;;;;;15.76;89.98;100176.52;1653227;84;20923;-75
2021/07/08 00:03:54;;;;;;;4.92;2.55;;;;;;;15.77;89.93;100180.86;1654609;85;20954;-75
2021/07/08 00:06:20;;;;;;;4.60;2.40;;;;;;;15.79;89.95;100192.12;1652872;85;20937;-75
2021/07/08 00:08:47;;;;;;;4.08;2.10;;;;;;;15.79;90.07;100184.22;1629006;87;21100;-75
2021/07/08 00:11:14;;;;;;;3.72;1.95;;;;;;;15.86;89.96;100190.81;1648308;85;20891;-76
2021/07/08 00:13:41;;;;;;;5.12;2.40;;;;;;;15.85;89.97;100186.50;1663575;85;21417;-75
2021/07/08 00:16:07;;;;;;;4.63;2.57;;;;;;;15.88;90.03;100194.20;1663541;85;21430;-75
2021/07/08 00:18:34;;;;;;;5.27;2.53;;;;;;;15.88;89.94;100192.89;1660800;85;20908;-75
2021/07/08 00:21:01;;;;;;;5.35;2.25;;;;;;;15.87;89.97;100189.86;1631821;87;21073;-75
2021/07/08 00:23:27;;;;;;;3.17;1.57;;;;;;;15.87;90.17;100187.23;1627468;87;20909;-75
2021/07/08 00:25:55;;;;;;;6.85;2.33;;;;;;;15.87;90.34;100184.59;1630546;87;20935;-74
2021/07/08 00:28:23;;;;;;;2.42;1.85;;;;;;;15.86;90.12;100180.28;1629266;87;20943;-75
2021/07/08 00:30:50;;;;;;;3.47;1.95;;;;;;;15.86;90.24;100178.12;1661846;85;20926;-75
2021/07/08 00:33:18;;;;;;;4.10;2.00;;;;;;;15.85;90.36;100175.97;1660807;85;21066;-75
2021/07/08 00:35:45;;;;;;;5.00;2.12;;;;;;;15.85;90.42;100178.60;1623757;87;20899;-75
2021/07/08 00:38:12;;;;;;;10.05;2.35;;;;;;;15.84;90.36;100175.57;1663574;84;20974;-75
2021/07/08 00:40:39;;;;;;;4.28;2.37;;;;;;;15.86;90.45;100182.07;1663872;85;21553;-75
2021/07/08 00:43:06;;;;;;;;;;;;;;;15.86;90.40;100180.28;1664897;85;20926;-75
2021/07/08 00:45:33;;;;;;;7.55;2.50;;;;;;;15.85;90.54;100181.23;1662663;85;22281;-75
2021/07/08 00:48:00;;;;;;;7.65;2.52;;;;;;;15.86;90.50;100183.39;1663152;85;21413;-75
2021/07/08 00:50:36;;;;;;;5.25;2.50;;;;;;;15.87;90.48;100184.59;1663312;85;21394;-75
2021/07/08 00:53:04;;;;;;;5.60;2.50;;;;;;;15.89;90.47;100178.77;1655146;85;21003;-75
2021/07/08 00:55:31;;;;;;;3.35;2.17;;;;;;;15.93;90.43;100182.53;1652313;85;20931;-75
2021/07/08 00:57:58;;;;;;;3.65;1.98;;;;;;;15.95;90.42;100180.66;1644182;85;22288;-75
2021/07/08 01:00:33;;;;;;;4.40;2.23;;;;;;;15.97;90.44;100184.05;1663114;85;20870;-75
2021/07/08 01:03:00;;;;;;;5.37;2.33;;;;;;;15.96;90.44;100182.34;1660305;85;20962;-75
2021/07/08 01:05:31;;;;;;;3.70;1.95;;;;;;;15.99;90.51;100196.18;1661477;85;22569;-75
2021/07/08 01:07:58;;;;;;;7.90;4.03;;;;;;;16.04;90.48;100190.61;1660712;85;20935;-75
2021/07/08 01:10:26;;;;;;;4.47;2.08;;;;;;;16.03;90.54;100191.56;1690859;84;21283;-74
2021/07/08 01:12:52;;;;;;;;;;;;;;;15.98;90.58;100185.73;1694323;84;20970;-75
2021/07/08 01:15:19;;;;;;;2.47;1.70;;;;;;;15.94;90.89;100186.88;1683429;84;20115;-75
2021/07/08 01:17:46;;;;;;;5.60;2.50;;;;;;;15.92;90.81;100186.11;1686328;84;21513;-75
2021/07/08 01:20:17;;;;;;;3.55;2.02;;;;;;;15.89;90.70;100182.72;1686294;84;20947;-75
2021/07/08 01:22:44;;;;;;;3.17;1.35;;;;;;;15.88;90.97;100196.84;1686648;84;21598;-75
2021/07/08 01:25:13;;;;;;;3.47;1.57;;;;;;;15.87;90.92;100191.66;1685554;84;20903;-75
2021/07/08 01:27:40;;;;;;;4.55;1.65;;;;;;;15.87;91.01;100196.45;1687987;84;20962;-75
2021/07/08 01:30:10;;;;;;;3.37;1.60;;;;;;;15.88;90.84;100191.58;1686354;84;21044;-75
2021/07/08 01:32:38;;;;;;;6.20;2.05;;;;;;;15.86;90.93;100190.81;1686517;84;21485;-75
2021/07/08 01:35:08;;;;;;;2.67;1.50;;;;;;;15.85;90.85;100191.77;1687490;84;21633;-75
2021/07/08 01:37:35;;;;;;;2.40;1.80;;;;;;;15.86;90.93;100189.50;1690267;84;20951;-75
2021/07/08 01:40:06;;;;;;;4.10;2.08;;;;;;;15.85;91.01;100194.40;1686204;84;20962;-75
2021/07/08 01:42:33;;;;;;;2.62;1.72;;;;;;;15.83;91.01;100196.27;1685031;84;20980;-75
2021/07/08 01:44:59;;;;;;;7.93;1.87;;;;;;;15.84;91.08;100208.48;1688103;84;20955;-75
2021/07/08 01:47:26;;;;;;;3.47;1.83;;;;;;;15.85;91.02;100211.52;1688010;84;21868;-75
2021/07/08 01:49:53;;;;;;;3.02;1.82;;;;;;;15.86;90.94;100208.41;1686416;84;21393;-75
2021/07/08 01:52:20;;;;;;;3.00;1.70;;;;;;;15.88;91.06;100204.74;1683906;84;21825;-75
2021/07/08 01:54:46;;;;;;;4.97;2.02;;;;;;;15.88;91.06;100204.74;1689671;84;20919;-75
2021/07/08 01:57:13;;;;;;;1.53;1.40;;;;;;;15.88;90.96;100206.05;1688655;84;20975;-75
2021/07/08 01:59:39;;;;;;;3.17;1.80;;;;;;;15.89;91.24;100211.69;1689445;84;21056;-75
2021/07/08 02:02:06;;;;;;;6.67;2.60;;;;;;;15.87;91.16;100208.30;1679962;83;20930;-75
2021/07/08 02:04:32;;;;;;;4.37;1.53;;;;;;;15.89;91.12;100206.42;1659367;83;20877;-75
2021/07/08 02:06:59;;;;;;;2.70;1.80;;;;;;;15.91;91.38;100206.34;1646043;86;20898;-74
2021/07/08 02:09:26;;;;;;;2.50;1.70;;;;;;;15.88;91.58;100210.01;1643307;86;20926;-75
2021/07/08 02:11:53;;;;;;;2.35;1.77;;;;;;;15.86;91.34;100207.09;1672461;85;21048;-75
2021/07/08 02:14:19;;;;;;;3.52;1.72;;;;;;;15.88;91.31;100213.95;1665197;85;20971;-75
2021/07/08 02:16:46;;;;;;;4.33;1.77;;;;;;;15.88;91.26;100215.75;1644696;86;20947;-75
2021/07/08 02:19:13;;;;;;;3.17;2.13;;;;;;;15.94;91.45;100221.11;1643538;86;20943;-75
2021/07/08 02:21:39;;;;;;;2.42;1.90;;;;;;;15.94;91.21;100219.80;1699647;83;21464;-75
2021/07/08 02:24:06;;;;;;;3.37;1.83;;;;;;;15.91;91.47;100211.61;1697178;83;20984;-75
2021/07/08 02:26:32;;;;;;;9.33;2.60;;;;;;;15.91;91.24;100229.17;1697003;83;20902;-75
2021/07/08 02:28:59;;;;;;;3.33;2.20;;;;;;;15.92;91.34;100223.83;1665597;85;20921;-74
2021/07/08 02:31:26;;;;;;;7.77;2.77;;;;;;;15.95;91.21;100233.33;1640783;86;20934;-75
2021/07/08 02:33:52;;;;;;;3.20;2.20;;;;;;;15.95;91.42;100230.69;1660846;85;21512;-75
2021/07/08 02:36:19;;;;;;;3.33;1.90;;;;;;;15.93;91.31;100235.20;1663723;85;21402;-75
2021/07/08 02:38:45;;;;;;;4.28;2.27;;;;;;;15.89;91.38;100225.33;1665826;85;22054;-75
2021/07/08 02:41:12;;;;;;;3.58;2.27;;;;;;;15.89;91.37;100232.75;1645818;86;20975;-75
2021/07/08 02:43:39;;;;;;;4.10;2.00;;;;;;;15.88;91.37;100228.44;1643648;86;21022;-75
2021/07/08 02:46:06;;;;;;;2.70;1.77;;;;;;;15.88;91.42;100228.44;1661034;85;20974;-75
2021/07/08 02:48:33;;;;;;;3.07;1.93;;;;;;;15.89;91.54;100230.13;1695322;83;21050;-75
2021/07/08 02:51:00;;;;;;;2.10;1.90;;;;;;;15.87;91.41;100230.67;1666944;85;20915;-75
2021/07/08 02:53:26;;;;;;;3.50;2.37;;;;;;;15.87;92.04;100224.09;1663227;85;21516;-75
2021/07/08 02:55:53;;;;;;;3.33;1.83;;;;;;;15.84;91.59;100227.39;1695659;83;20924;-75
2021/07/08 02:58:20;;;;;;;2.75;2.00;;;;;;;15.80;91.59;100222.80;1691515;83;20914;-75
2021/07/08 03:00:48;;;;;;;3.92;2.00;;;;;;;15.81;91.72;100227.11;1662275;85;20987;-75
2021/07/08 03:03:16;;;;;;;5.15;2.35;;;;;;;15.80;91.83;100233.33;1673897;83;20944;-75
2021/07/08 03:05:43;;;;;;;3.52;1.82;;;;;;;15.79;91.66;100235.56;1675731;84;20942;-74
2021/07/08 03:08:10;;;;;;;5.42;1.92;;;;;;;15.81;91.66;100235.01;1664914;84;20900;-74
2021/07/08 03:10:38;;;;;;;2.42;1.90;;;;;;;15.83;91.60;100241.51;1665183;85;20995;-75
2021/07/08 03:13:05;;;;;;;6.72;2.37;;;;;;;15.82;91.64;100231.45;1672687;84;21055;-75
2021/07/08 03:15:31;;;;;;;4.20;2.25;;;;;;;15.83;91.60;100229.66;1671001;85;20906;-75
2021/07/08 03:17:58;;;;;;;4.40;2.60;;;;;;;15.86;91.55;100234.73;1696965;83;20890;-76
2021/07/08 03:20:29;;;;;;;5.13;2.60;;;;;;;15.88;91.55;100239.45;1694774;83;20922;-75
2021/07/08 03:22:56;;;;;;;6.17;2.65;;;;;;;15.90;91.54;100241.49;1694776;83;20961;-75
2021/07/08 03:25:24;;;;;;;5.95;2.45;;;;;;;15.93;91.49;100240.47;1699234;83;21890;-75
2021/07/08 03:27:52;;;;;;;9.00;2.40;;;;;;;15.92;91.49;100240.09;1666395;85;20965;-75
2021/07/08 03:30:22;;;;;;;8.00;2.60;;;;;;;15.94;91.52;100242.18;1661562;85;20910;-75
2021/07/08 03:32:51;;;;;;;4.45;2.20;;;;;;;15.97;91.56;100236.72;1699184;83;20879;-75
2021/07/08 03:35:18;;;;;;;3.05;2.05;;;;;;;16.01;91.49;100236.89;1699106;83;20899;-75
2021/07/08 03:37:45;;;;;;;6.40;3.03;;;;;;;16.02;91.40;100239.89;1700261;83;21103;-75
2021/07/08 03:40:14;;;;;;;2.83;2.27;;;;;;;16.02;91.38;100237.25;1697112;83;21666;-75
2021/07/08 03:42:41;;;;;;;5.97;2.33;;;;;;;16.03;91.37;100244.23;1698441;83;20882;-75
2021/07/08 03:45:10;;;;;;;2.52;1.87;;;;;;;16.03;91.38;100239.81;1697043;83;20915;-75
2021/07/08 03:47:37;;;;;;;5.87;2.37;;;;;;;16.05;91.37;100243.68;1699617;83;21492;-75
2021/07/08 03:50:07;;;;;;;4.40;2.60;;;;;;;16.08;91.51;100239.54;1671733;84;21294;-75
2021/07/08 03:52:33;;;;;;;3.05;2.20;;;;;;;16.13;91.40;100247.98;1658817;85;21484;-75
2021/07/08 03:55:00;;;;;;;4.03;2.65;;;;;;;16.15;91.51;100243.47;1643229;86;20911;-74
2021/07/08 03:57:27;;;;;;;6.80;2.30;;;;;;;16.18;91.42;100244.59;1642975;86;21007;-75
2021/07/08 03:59:53;;;;;;;5.67;2.10;;;;;;;16.17;91.26;100249.50;1640561;86;20951;-75
2021/07/08 04:02:20;;;;;;;5.53;2.30;;;;;;;16.16;91.33;100247.81;1635430;86;21079;-75
2021/07/08 04:04:47;;;;;;;3.17;2.17;;;;;;;16.15;91.42;100256.64;1658196;85;20915;-74
2021/07/08 04:07:14;;;;;;;4.90;2.05;;;;;;;16.15;91.42;100259.27;1662595;85;21395;-73
2021/07/08 04:09:40;;;;;;;4.93;2.43;;;;;;;16.19;91.54;100257.28;1652653;85;20954;-73
2021/07/08 04:12:08;;;;;;;5.63;1.87;;;;;;;16.25;91.67;100255.14;1663837;85;20982;-74
2021/07/08 04:14:34;;;;;;;2.20;1.55;;;;;;;16.26;91.21;100254.19;1658195;85;20941;-75
2021/07/08 04:17:01;;;;;;;4.10;2.03;;;;;;;16.24;91.40;100253.42;1654625;85;20899;-75
2021/07/08 04:19:27;;;;;;;3.90;2.13;;;;;;;16.19;91.32;100254.20;1659254;85;21724;-74
2021/07/08 04:21:54;;;;;;;2.47;1.80;;;;;;;16.18;91.46;100252.49;1633611;87;20891;-74
2021/07/08 04:24:20;;;;;;;4.67;2.40;;;;;;;16.19;91.57;100256.84;1634203;87;20912;-74
2021/07/08 04:26:47;;;;;;;6.57;2.30;;;;;;;16.19;91.54;100254.66;1633831;87;21116;-74
2021/07/08 04:29:14;;;;;;;3.55;2.30;;;;;;;16.20;91.62;100254.57;1664103;85;20899;-77
2021/07/08 04:31:40;;;;;;;4.35;2.22;;;;;;;16.21;91.62;100252.30;1654553;85;20880;-75
2021/07/08 04:34:07;;;;;;;3.97;2.00;;;;;;;16.22;91.57;100256.65;1653005;85;20919;-75
2021/07/08 04:36:33;;;;;;;6.87;2.57;;;;;;;16.24;91.63;100254.74;1663640;85;20894;-75
2021/07/08 04:39:00;;;;;;;4.10;2.10;;;;;;;16.28;91.75;100254.94;1655182;85;21514;-75
2021/07/08 04:41:27;;;;;;;3.80;2.60;;;;;;;16.30;91.51;100255.70;1659495;85;20938;-75
2021/07/08 04:43:53;;;;;;;3.43;2.33;;;;;;;16.31;91.65;100262.66;1653603;85;20923;-75
2021/07/08 04:46:20;;;;;;;7.43;2.67;;;;;;;16.34;91.63;100261.14;1651258;85;20931;-75
2021/07/08 04:48:47;;;;;;;5.25;2.47;;;;;;;16.38;91.67;100264.89;1646418;85;20971;-74
2021/07/08 04:51:13;;;;;;;4.72;2.30;;;;;;;16.45;91.67;100268.86;1619088;87;21735;-74
2021/07/08 04:53:40;;;;;;;2.83;2.03;;;;;;;16.45;91.45;100274.13;1621548;87;20891;-74
2021/07/08 04:56:06;;;;;;;4.40;2.23;;;;;;;16.43;91.48;100274.20;1621784;85;20962;-74
2021/07/08 04:58:33;;;;;;;4.90;2.43;;;;;;;16.43;91.50;100272.89;1647782;85;21178;-74
2021/07/08 05:01:00;;;;;;;2.15;1.72;;;;;;;16.45;91.60;100279.40;1621701;87;20907;-74
2021/07/08 05:03:26;;;;;;;3.30;2.00;;;;;;;16.47;91.49;100288.06;1650796;85;21063;-75
2021/07/08 05:05:53;;;;;;;5.03;2.52;;;;;;;16.49;91.66;100292.75;1623874;85;20959;-74
2021/07/08 05:08:20;;;;;;;4.35;2.35;;;;;;;16.54;91.62;100295.94;1681183;84;20956;-75
2021/07/08 05:10:46;;;;;;;3.20;2.27;;;;;;;16.56;91.35;100300.66;1683712;82;20957;-74
2021/07/08 05:13:13;;;;;;;3.33;2.35;;;;;;;16.57;91.55;100298.38;1685944;83;21487;-75
2021/07/08 05:15:40;;;;;;;4.17;2.27;;;;;;;16.43;91.37;100283.91;1683847;84;21058;-74
2021/07/08 05:18:06;;;;;;;5.70;2.27;;;;;;;16.43;91.37;100283.91;1680983;84;21442;-75
2021/07/08 05:20:33;;;;;;;4.62;1.80;;;;;;;16.53;91.48;100303.48;1678102;84;20933;-75
2021/07/08 05:23:06;;;;;;;4.60;1.90;;;;;;;16.57;91.60;100306.30;1678780;84;20953;-75
2021/07/08 05:25:31;;;;;;;3.35;1.98;;;;;;;16.61;91.68;100306.49;1677053;84;21473;-75
2021/07/08 05:27:58;;;;;;;2.92;2.05;;;;;;;16.65;91.59;100307.98;1676659;84;21021;-75
2021/07/08 05:30:25;;;;;;;6.87;2.35;;;;;;;16.66;91.48;100307.02;1677583;84;20971;-75
2021/07/08 05:32:51;;;;;;;2.97;2.30;;;;;;;16.64;91.30;100308.94;1675191;84;20978;-75
2021/07/08 05:35:18;;;;;;;3.13;2.23;;;;;;;16.61;91.34;100303.86;1648755;85;21221;-75
2021/07/08 05:37:44;;;;;;;3.37;2.20;;;;;;;16.62;91.54;100304.22;1684875;84;21536;-75
2021/07/08 05:40:11;;;;;;;2.55;2.20;;;;;;;16.65;91.50;100305.34;1655940;85;21282;-74
2021/07/08 05:42:38;;;;;;;10.00;3.00;;;;;;;16.69;91.53;100308.62;1652104;85;20957;-75
2021/07/08 05:45:06;;;;;;;6.07;2.60;;;;;;;16.72;91.79;100313.25;1652409;85;21470;-74
2021/07/08 05:47:33;;;;;;;5.17;2.80;;;;;;;16.77;91.49;100311.66;1654036;85;21607;-74
2021/07/08 05:50:00;;;;;;;2.72;2.37;;;;;;;16.84;91.76;100310.81;1650364;85;20890;-78
2021/07/08 05:52:28;;;;;;;4.57;2.27;;;;;;;16.91;91.45;100308.13;1653184;85;21297;-77
2021/07/08 05:54:54;;;;;;;4.30;2.35;;;;;;;16.87;91.29;100306.66;1653679;85;21260;-76
2021/07/08 05:57:21;;;;;;;4.40;2.27;;;;;;;16.93;91.59;100318.13;1683380;84;20932;-76
2021/07/08 05:59:48;;;;;;;2.30;2.12;;;;;;;16.95;91.41;100319.72;1648217;85;21019;-76
2021/07/08 06:02:14;;;;;;;4.53;2.00;;;;;;;17.03;91.60;100328.47;1682404;82;21002;-77
2021/07/08 06:04:41;;;;;;;4.33;2.00;;;;;;;17.01;90.94;100327.71;1637168;85;21903;-76
2021/07/08 06:07:08;;;;;;;3.00;2.27;;;;;;;17.00;91.19;100331.31;1645457;85;20934;-76
2021/07/08 06:09:35;;;;;;;3.05;1.90;;;;;;;17.04;91.32;100335.91;1651247;85;21075;-76
2021/07/08 06:12:01;;;;;;;5.50;2.33;;;;;;;17.13;91.63;100333.50;1653872;85;20971;-76
2021/07/08 06:14:28;;;;;;;3.03;1.73;;;;;;;17.20;91.13;100333.49;1653462;85;20907;-77
2021/07/08 06:16:55;;;;;;;3.40;1.70;;;;;;;17.28;91.49;100330.81;1651306;85;21194;-77
2021/07/08 06:19:21;;;;;;;3.92;1.95;;;;;;;17.38;91.22;100336.70;1629014;87;20939;-77
2021/07/08 06:21:49;;;;;;;3.70;2.13;;;;;;;17.35;90.42;100334.75;1651718;85;21528;-76
2021/07/08 06:24:18;;;;;;;;;;;;;;;17.28;90.71;100332.13;1649271;85;20986;-76
2021/07/08 06:26:45;;;;;;;3.52;2.00;;;;;;;17.27;90.47;100333.09;1647302;85;20523;-77
2021/07/08 06:29:11;;;;;;;3.25;1.70;;;;;;;17.23;90.85;100328.02;1618688;87;26858;-77
2021/07/08 06:31:38;;;;;;;2.65;1.82;;;;;;;17.33;91.16;100337.95;1644776;85;21496;-77
2021/07/08 06:34:06;;;;;;;3.98;1.82;;;;;;;17.39;91.08;100334.91;1644834;85;21501;-77
2021/07/08 06:36:33;;;;;;;2.83;2.10;;;;;;;17.47;90.94;100343.17;1644694;85;20971;-77
2021/07/08 06:39:00;;;;;;;3.27;1.60;;;;;;;17.52;90.59;100342.40;1642447;85;20974;-77
2021/07/08 06:41:26;;;;;;;2.90;2.08;;;;;;;17.49;90.70;100342.61;1643549;85;21043;-79
2021/07/08 06:43:53;;;;;;;3.98;1.50;;;;;;;17.52;90.83;100349.00;1624760;87;20956;-77
2021/07/08 06:46:27;;;;;;;4.87;1.98;;;;;;;17.55;90.71;100348.80;1641711;85;21501;-77
2021/07/08 06:48:48;;;;;;;2.25;1.70;;;;;;;17.52;90.42;100350.32;1627778;86;21067;-77
2021/07/08 06:51:16;;;;;;;5.30;1.98;;;;;;;17.50;90.30;100350.89;1629274;87;20963;-77
2021/07/08 06:53:43;;;;;;;3.87;2.37;;;;;;;17.50;90.63;100348.25;1645454;85;21718;-77
2021/07/08 06:56:09;;;;;;;4.65;1.82;;;;;;;17.62;90.86;100348.77;1622781;87;20974;-77
2021/07/08 06:58:36;;;;;;;3.15;1.80;;;;;;;17.68;90.75;100347.03;1646729;85;20929;-77
2021/07/08 07:01:03;;;;;;;4.67;2.40;;;;;;;17.78;90.45;100339.36;1645054;85;20893;-77
2021/07/08 07:03:34;;;;;;;2.83;1.85;;;;;;;17.88;90.72;100338.28;1652634;83;20929;-77
2021/07/08 07:05:59;;;;;;;3.47;1.75;;;;;;;18.07;90.33;100340.03;1651858;85;21127;-77
2021/07/08 07:08:26;;;;;;;8.63;1.80;;;;;;;18.27;90.23;100348.39;1634999;86;20879;-77
2021/07/08 07:10:52;;;;;;;8.08;2.20;;;;;;;18.48;90.18;100348.19;1634139;86;20981;-76
2021/07/08 07:13:19;;;;;;;11.85;1.95;;;;;;;18.71;90.14;100344.42;1638413;86;20982;-75
2021/07/08 07:15:45;;;;;;;6.17;2.15;;;;;;;18.85;89.80;100352.25;1650232;85;20978;-77
2021/07/08 07:18:12;;;;;;;3.83;1.90;;;;;;;18.89;89.70;100345.77;1648118;85;21061;-77
2021/07/08 07:20:39;;;;;;;4.03;1.60;;;;;;;18.83;88.45;100354.16;1649969;85;20978;-77
2021/07/08 07:23:05;;;;;;;12.23;2.33;;;;;;;18.75;89.08;100352.53;1651115;85;20969;-77
2021/07/08 07:25:39;;;;;;;3.10;1.57;;;;;;;18.64;88.81;100338.70;1648141;85;20947;-76
2021/07/08 07:28:01;;;;;;;7.03;1.90;;;;;;;18.56;88.45;100341.89;1646625;85;20921;-75
2021/07/08 07:30:27;;;;;;;2.98;1.50;;;;;;;18.54;88.62;100358.36;1656748;85;21047;-74
2021/07/08 07:32:55;;;;;;;4.58;1.40;;;;;;;18.47;88.43;100361.05;1652735;85;20902;-74
2021/07/08 07:35:23;;;;;;;4.28;1.42;;;;;;;18.50;88.37;100356.87;1650704;85;20969;-74
2021/07/08 07:37:52;;;;;;;2.30;1.47;;;;;;;18.56;88.97;100362.20;1663822;84;20895;-75
2021/07/08 07:40:20;;;;;;;4.47;1.40;;;;;;;18.55;88.18;100366.66;1671359;84;20948;-74
2021/07/08 07:42:47;;;;;;;3.47;1.30;;;;;;;18.64;88.75;100364.31;1670760;84;21019;-74
2021/07/08 07:45:17;;;;;;;3.15;1.80;;;;;;;18.71;89.06;100365.59;1647747;84;20878;-74
2021/07/08 07:47:43;;;;;;;4.95;1.35;;;;;;;18.75;88.59;100371.05;1670391;84;20942;-73
2021/07/08 07:50:10;;;;;;;;;;;;;;;18.70;87.98;100370.48;1671236;84;21570;-74
2021/07/08 07:52:37;;;;;;;4.30;1.37;;;;;;;18.54;87.43;100378.20;1662671;84;20449;-72
2021/07/08 07:55:05;;;;;;;2.85;1.00;;;;;;;18.50;88.30;100378.02;1674066;84;21478;-74
2021/07/08 07:57:33;;;;;;;1.65;1.00;;;;;;;18.41;88.32;100374.70;1666340;84;21449;-72
2021/07/08 07:59:59;;;;;;;2.70;1.45;;;;;;;18.41;88.52;100377.35;1647842;84;20905;-72
2021/07/08 08:02:26;;;;;;;1.80;1.20;;;;;;;18.48;88.73;100381.73;1670333;84;20993;-73
2021/07/08 08:10:09;;;;;;;2.80;1.60;;;;;;;18.67;88.33;100393.19;1683096;84;20960;-74
2021/07/08 08:12:36;;;;;;;4.72;1.60;;;;;;;18.52;87.35;100393.31;1678007;84;21469;-73
2021/07/08 08:15:08;;;;;;;3.02;1.37;;;;;;;18.49;88.16;100396.17;1644835;86;20882;-74
2021/07/08 08:17:37;;;;;;;2.98;1.40;;;;;;;18.62;88.25;100390.02;1648208;86;20935;-72
2021/07/08 08:20:06;;;;;;;4.42;1.57;;;;;;;18.72;88.26;100396.36;1649595;85;21049;-72
2021/07/08 08:22:33;;;;;;;8.73;1.50;;;;;;;18.75;88.25;100388.24;1651198;85;20889;-72
2021/07/08 08:24:59;;;;;;;;;;;;;;;18.81;88.16;100394.90;1682417;84;20946;-73
2021/07/08 08:27:26;;;;;;;2.75;1.22;;;;;;;18.85;87.86;100386.64;1668889;84;20552;-72
2021/07/08 08:29:53;;;;;;;4.08;1.30;;;;;;;18.87;88.49;100387.36;1679901;84;20946;-71
2021/07/08 08:32:19;;;;;;;2.00;1.20;;;;;;;18.94;88.19;100382.01;1650751;84;21861;-71
2021/07/08 08:34:46;;;;;;;2.72;1.70;;;;;;;18.93;87.35;100384.30;1642554;86;21551;-71
2021/07/08 08:37:13;;;;;;;3.42;1.40;;;;;;;18.94;87.81;100380.69;1635210;86;20955;-71
2021/07/08 08:39:39;;;;;;;3.75;1.87;;;;;;;18.91;87.19;100386.69;1641919;86;21005;-71
2021/07/08 08:42:10;;;;;;;4.33;1.32;;;;;;;18.89;86.71;100382.81;1640217;86;20994;-71
2021/07/08 08:44:38;;;;;;;3.87;1.57;;;;;;;18.79;86.50;100389.70;1640304;86;21345;-69
2021/07/08 08:47:10;;;;;;;3.22;1.37;;;;;;;18.74;85.29;100385.23;1640857;86;21651;-70
2021/07/08 08:49:41;;;;;;;1.67;1.00;;;;;;;18.66;86.98;100390.19;1641297;86;20963;-70
2021/07/08 08:52:10;;;;;;;4.85;1.50;;;;;;;18.86;87.54;100387.48;1644129;86;20990;-71
2021/07/08 08:54:42;;;;;;;3.98;1.20;;;;;;;19.00;87.47;100384.21;1681516;84;21014;-72
2021/07/08 08:57:09;;;;;;;1.92;1.10;;;;;;;19.10;87.36;100384.86;1655340;84;21062;-70
2021/07/08 08:59:36;;;;;;;6.87;1.12;;;;;;;19.16;86.91;100387.09;1684004;84;20974;-71
2021/07/08 09:02:12;;;;;;;4.83;1.40;;;;;;;19.24;86.78;100382.09;1693653;84;20910;-72
2021/07/08 09:04:39;;;;;;;3.40;1.12;;;;;;;19.35;86.57;100383.92;1685913;84;20932;-70
2021/07/08 09:07:26;;;;;;;;;;;;;;;19.35;86.04;100383.47;1685813;84;20995;-71
2021/07/08 09:09:56;;;;;;;3.58;1.40;;;;;;;19.34;85.63;100379.59;1685028;84;21065;-70
2021/07/08 09:12:25;;;;;;;2.55;1.05;;;;;;;19.42;86.75;100378.07;1678960;84;20931;-73
2021/07/08 09:15:15;;;;;;;2.75;1.32;;;;;;;19.62;86.25;100367.31;1682690;84;20867;-73
2021/07/08 09:17:43;;;;;;;2.75;1.37;;;;;;;19.70;85.19;100357.99;1680131;84;20938;-71
2021/07/08 09:20:20;;;;;;;2.70;1.20;;;;;;;19.79;85.68;100356.80;1642975;86;20903;-73
2021/07/08 09:22:49;;;;;;;7.25;1.72;;;;;;;20.02;86.12;100370.11;1649599;85;21060;-72
2021/07/08 09:25:25;;;;;;;1.98;0.93;;;;;;;20.04;84.60;100366.88;1637337;85;21741;-68
2021/07/08 09:28:19;;;;;;;2.30;0.85;;;;;;;20.13;84.68;100372.78;1644847;85;20989;-70
2021/07/08 09:30:44;;;;;;;2.02;0.80;;;;;;;20.02;83.02;100378.06;1645977;85;21440;-73
2021/07/08 09:33:33;;;;;;;3.30;1.10;;;;;;;19.68;83.38;100380.61;1643809;85;20965;-72
2021/07/08 09:36:15;;;;;;;2.45;0.88;;;;;;;19.56;84.16;100378.86;1643273;85;21065;-71
2021/07/08 09:38:46;;;;;;;2.15;1.02;;;;;;;19.50;84.36;100372.70;1671570;84;20956;-72
2021/07/08 09:41:22;;;;;;;2.42;0.95;;;;;;;19.42;83.46;100386.02;1675939;84;20960;-71
2021/07/08 09:43:49;;;;;;;1.57;0.70;;;;;;;19.35;84.52;100378.63;1673719;84;20910;-70
2021/07/08 09:46:17;;;;;;;2.98;1.10;;;;;;;19.28;82.32;100371.63;1650455;85;21490;-71
2021/07/08 09:49:08;;;;;;;2.87;1.10;;;;;;;19.20;84.32;100368.20;1615575;87;21540;-71
2021/07/08 09:51:35;;;;;;;1.60;0.68;;;;;;;19.17;84.27;100367.59;1630231;86;22262;-71
2021/07/08 09:54:25;;;;;;;4.15;0.80;;;;;;;19.17;84.69;100368.91;1626764;86;20942;-71
2021/07/08 09:56:49;;;;;;;3.50;1.12;;;;;;;19.08;84.43;100368.27;1673012;84;20923;-71
2021/07/08 09:59:20;;;;;;;;;;;;;;;19.13;84.82;100366.11;1678440;84;20963;-72
2021/07/08 10:02:00;;;;;;;2.62;0.72;;;;;;;19.13;84.28;100359.03;1678931;84;20904;-71
2021/07/08 10:04:25;;;;;;;3.47;0.90;;;;;;;19.17;84.92;100364.94;1669608;84;20891;-71
2021/07/08 10:06:54;;;;;;;3.27;1.00;;;;;;;19.28;84.64;100362.36;1646797;85;20970;-75
2021/07/08 10:09:21;;;;;;;3.27;0.98;;;;;;;19.44;84.98;100356.78;1644830;85;20988;-71
2021/07/08 10:11:51;;;;;;;3.55;0.90;;;;;;;19.55;84.42;100355.95;1656813;85;20968;-72
2021/07/08 10:14:19;;;;;;;5.58;1.00;;;;;;;19.50;83.95;100368.24;1647677;85;21481;-72
2021/07/08 10:16:51;;;;;;;3.87;1.10;;;;;;;19.47;84.49;100366.30;1653124;85;20943;-72
2021/07/08 10:19:21;;;;;;;3.52;1.17;;;;;;;19.45;84.47;100359.78;1626077;87;20872;-72
2021/07/08 10:21:51;;;;;;;3.87;0.90;;;;;;;19.28;83.73;100354.41;1633412;87;20939;-72
2021/07/08 10:24:19;;;;;;;1.50;1.10;;;;;;;19.23;83.95;100359.20;1650790;85;21486;-72
2021/07/08 10:26:47;;;;;;;3.12;1.10;;;;;;;19.27;83.92;100359.80;1634561;87;22007;-71
2021/07/08 10:29:15;;;;;;;3.98;1.02;;;;;;;19.37;84.51;100364.31;1627316;87;20909;-71
2021/07/08 10:31:48;;;;;;;4.03;1.30;;;;;;;19.37;83.03;100356.38;1630964;87;20932;-71
2021/07/08 10:34:20;;;;;;;4.33;0.82;;;;;;;19.40;83.94;100353.49;1632701;87;20990;-71
2021/07/08 10:36:50;;;;;;;1.82;1.00;;;;;;;19.41;83.62;100357.02;1633894;87;20964;-71
2021/07/08 10:39:20;;;;;;;4.95;1.10;;;;;;;19.50;83.66;100352.84;1629410;87;21006;-71
2021/07/08 10:41:58;;;;;;;2.05;0.88;;;;;;;19.74;84.48;100353.66;1629430;87;20967;-71
2021/07/08 10:44:44;;;;;;;3.42;1.00;;;;;;;20.07;84.40;100346.75;1626043;87;20994;-72
2021/07/08 10:47:36;;;;;;;3.85;1.00;;;;;;;20.27;84.03;100350.02;1620387;87;20907;-71
2021/07/08 10:50:27;;;;;;;5.35;0.70;;;;;;;20.67;84.44;100348.27;1624693;87;20951;-71
2021/07/08 10:52:55;;;;;;;2.62;1.20;;;;;;;21.01;83.75;100350.86;1647724;84;21837;-71
2021/07/08 10:55:41;;;;;;;2.37;0.93;;;;;;;21.13;83.41;100341.05;1662482;84;20881;-70
2021/07/08 10:58:29;;;;;;;3.70;0.80;;;;;;;21.16;82.90;100333.67;1658786;85;21464;-69
2021/07/08 11:00:56;;;;;;;1.77;0.80;;;;;;;21.13;82.58;100331.27;1648860;85;21072;-72
2021/07/08 11:03:45;;;;;;;2.52;0.70;;;;;;;21.07;82.45;100339.73;1655716;85;20940;-69
2021/07/08 11:06:24;;;;;;;2.95;1.00;;;;;;;21.06;81.68;100334.08;1655454;85;21111;-69
2021/07/08 11:08:57;;;;;;;2.27;0.98;;;;;;;21.08;81.53;100333.45;1663175;85;20914;-71
2021/07/08 11:11:29;;;;;;;2.65;0.90;;;;;;;21.08;82.37;100322.83;1651203;85;20984;-72
2021/07/08 11:13:58;;;;;;;4.85;0.70;;;;;;;21.01;81.08;100308.39;1655287;85;21408;-71
2021/07/08 11:16:53;;;;;;;2.08;0.70;;;;;;;20.89;80.80;100301.41;1629855;87;20911;-71
2021/07/08 11:19:25;;;;;;;1.80;0.90;;;;;;;21.00;80.50;100304.03;1623784;87;21034;-71
2021/07/08 11:22:05;;;;;;;5.95;1.00;;;;;;;21.31;81.35;100293.53;1648115;85;21275;-71
2021/07/08 11:24:51;;;;;;;2.58;0.93;;;;;;;21.53;81.80;100293.45;1651256;85;20883;-70
2021/07/08 11:27:31;;;;;;;2.92;0.80;;;;;;;21.48;78.83;100303.62;1660500;85;20927;-71
2021/07/08 11:30:05;;;;;;;2.47;1.00;;;;;;;21.52;80.84;100299.75;1665909;85;21453;-71
2021/07/08 11:32:43;;;;;;;2.62;1.00;;;;;;;21.65;80.08;100311.05;1663926;85;22042;-70
2021/07/08 11:35:21;;;;;;;2.15;0.80;;;;;;;21.50;77.00;100310.15;1664216;84;21456;-71
2021/07/08 11:38:01;;;;;;;2.65;0.70;;;;;;;21.24;78.23;100313.97;1666636;85;20963;-69
2021/07/08 11:40:38;;;;;;;1.80;0.95;;;;;;;21.15;79.37;100304.11;1664881;85;20974;-69